createdAt,value
2022-10-10T00:02:25.781Z,102334.81
2022-10-10T00:04:55.982Z,102344.41
2022-10-10T00:07:26.021Z,102342.69
2022-10-10T00:09:56.298Z,102336.09
2022-10-10T00:12:27.880Z,102333.91
2022-10-10T00:14:58.210Z,102335.81
2022-10-10T00:17:28.290Z,102333.16
2022-10-10T00:19:58.614Z,102332.19
2022-10-10T00:22:28.493Z,102334.56
2022-10-10T00:24:58.740Z,102328.59
2022-10-10T00:27:30.060Z,102325.84
2022-10-10T00:30:01.479Z,102336.94
2022-10-10T00:32:31.544Z,102329.06
2022-10-10T00:35:01.842Z,102325.66
2022-10-10T00:37:31.912Z,102327.38
2022-10-10T00:40:02.164Z,102330.97
2022-10-10T00:42:33.747Z,102336.84
2022-10-10T00:45:26.042Z,102322.75
2022-10-10T00:48:00.272Z,102336.78
2022-10-10T00:50:31.652Z,102337.56
2022-10-10T00:53:02.302Z,102322.06
2022-10-10T00:55:32.839Z,102335.06
2022-10-10T00:58:04.920Z,102332.47
2022-10-10T01:00:35.292Z,102328.47
2022-10-10T01:03:05.470Z,102321.50
2022-10-10T01:05:36.032Z,102329.47
2022-10-10T01:08:08.490Z,102313.63
2022-10-10T01:10:43.881Z,102315.41
2022-10-10T01:13:26.090Z,102316.09
2022-10-10T01:16:03.021Z,102309.59
2022-10-10T01:18:43.112Z,102314.94
2022-10-10T01:21:27.010Z,102309.13
2022-10-10T01:24:27.750Z,102307.28
2022-10-10T01:27:36.600Z,102308.44
2022-10-10T01:30:11.852Z,102307.38
2022-10-10T01:32:46.290Z,102303.81
2022-10-10T01:35:36.940Z,102309.06
2022-10-10T01:38:19.237Z,102300.03
2022-10-10T01:40:55.222Z,102299.34
2022-10-10T01:43:27.013Z,102290.22
2022-10-10T01:45:58.071Z,102290.06
2022-10-10T01:48:32.603Z,102299.09
2022-10-10T01:51:32.570Z,102290.44
2022-10-10T01:54:14.160Z,102294.25
2022-10-10T01:56:54.190Z,102297.25
2022-10-10T01:59:41.070Z,102304.78
2022-10-10T02:02:21.223Z,102295.41
2022-10-10T02:04:58.389Z,102296.81
2022-10-10T02:07:32.780Z,102302.00
2022-10-10T02:10:05.455Z,102300.09
2022-10-10T02:12:37.770Z,102303.06
2022-10-10T02:15:13.509Z,102298.88
2022-10-10T02:17:48.300Z,102307.00
2022-10-10T02:20:22.434Z,102304.75
2022-10-10T02:22:53.695Z,102314.00
2022-10-10T02:25:25.242Z,102304.97
2022-10-10T02:28:07.496Z,102295.22
2022-10-10T02:30:42.709Z,102304.50
2022-10-10T02:33:16.261Z,102295.63
2022-10-10T02:35:49.821Z,102288.59
2022-10-10T02:38:21.112Z,102303.91
2022-10-10T02:40:51.880Z,102309.75
2022-10-10T02:43:22.590Z,102302.59
2022-10-10T02:45:52.829Z,102246.75
2022-10-10T02:48:24.504Z,102298.53
2022-10-10T02:50:55.793Z,102304.25
2022-10-10T02:53:25.841Z,102297.09
2022-10-10T02:55:56.092Z,102296.03
2022-10-10T02:58:26.120Z,102289.41
2022-10-10T03:00:56.381Z,102290.75
2022-10-10T03:03:28.281Z,102300.28
2022-10-10T03:05:58.710Z,102289.56
2022-10-10T03:08:28.654Z,102292.19
2022-10-10T03:11:01.649Z,102299.50
2022-10-10T03:13:31.582Z,102298.00
2022-10-10T03:16:01.750Z,102295.09
2022-10-10T03:18:33.211Z,102292.78
2022-10-10T03:21:03.519Z,102292.94
2022-10-10T03:23:34.750Z,102294.38
2022-10-10T03:26:05.581Z,102288.25
2022-10-10T03:28:35.755Z,102294.91
2022-10-10T03:31:06.261Z,102290.50
2022-10-10T03:33:38.341Z,102293.00
2022-10-10T03:36:08.961Z,102287.88
2022-10-10T03:38:40.350Z,102284.25
2022-10-10T03:41:10.671Z,102291.16
2022-10-10T03:43:40.799Z,102284.53
2022-10-10T03:46:15.803Z,102285.97
2022-10-10T03:48:48.909Z,102281.41
2022-10-10T03:51:19.251Z,102277.09
2022-10-10T03:53:49.170Z,102280.00
2022-10-10T03:56:19.492Z,102277.84
2022-10-10T03:58:49.450Z,102282.56
2022-10-10T04:01:19.822Z,102280.72
2022-10-10T04:03:52.286Z,102275.28
2022-10-10T04:06:22.800Z,102278.25
2022-10-10T04:08:53.071Z,102284.16
2022-10-10T04:11:23.519Z,102286.47
2022-10-10T04:13:53.489Z,102284.19
2022-10-10T04:16:23.742Z,102283.44
2022-10-10T04:18:55.400Z,102284.75
2022-10-10T04:21:25.713Z,102286.53
2022-10-10T04:23:55.690Z,102288.06
2022-10-10T04:26:25.980Z,102289.69
2022-10-10T04:28:56.119Z,102283.97
2022-10-10T04:31:26.422Z,102285.56
2022-10-10T04:33:58.194Z,102288.41
2022-10-10T04:36:28.452Z,102287.50
2022-10-10T04:38:58.363Z,102292.81
2022-10-10T04:41:28.573Z,102289.22
2022-10-10T04:43:58.672Z,102283.09
2022-10-10T04:46:29.013Z,102286.47
2022-10-10T04:49:00.524Z,102284.75
2022-10-10T04:52:01.835Z,102284.44
2022-10-10T04:54:32.093Z,102276.69
2022-10-10T05:00:01.765Z,102267.22
2022-10-10T05:02:42.994Z,102254.69
2022-10-10T05:05:33.255Z,102250.84
2022-10-10T05:08:11.696Z,102257.56
2022-10-10T05:10:44.356Z,102248.06
2022-10-10T05:13:21.136Z,102250.75
2022-10-10T05:19:31.444Z,102242.34
2022-10-10T05:23:21.395Z,102249.94
2022-10-10T05:26:02.347Z,102242.50
2022-10-10T05:30:00.376Z,102248.31
2022-10-10T05:33:28.407Z,102248.81
2022-10-10T05:36:05.788Z,102255.34
2022-10-10T05:38:38.066Z,102242.78
2022-10-10T05:41:14.365Z,102250.13
2022-10-10T05:43:45.314Z,102250.13
2022-10-10T05:50:02.606Z,102246.31
2022-10-10T05:52:32.684Z,102239.84
2022-10-10T05:55:03.124Z,102241.38
2022-10-10T05:57:37.694Z,102240.69
2022-10-10T06:00:09.735Z,102234.19
2022-10-10T06:02:46.014Z,102245.34
2022-10-10T06:05:35.137Z,102240.88
2022-10-10T06:08:11.555Z,102234.13
2022-10-10T06:10:57.803Z,102231.88
2022-10-10T06:17:26.796Z,102226.03
2022-10-10T06:29:07.858Z,102214.69
2022-10-10T06:33:20.987Z,102217.63
2022-10-10T06:37:15.835Z,102214.53
2022-10-10T06:39:46.265Z,102205.16
2022-10-10T06:42:16.837Z,102205.84
2022-10-10T06:44:47.604Z,102193.59
2022-10-10T06:47:17.816Z,102197.63
2022-10-10T06:49:48.635Z,102200.31
2022-10-10T06:52:20.906Z,102200.31
2022-10-10T06:54:52.116Z,102191.50
2022-10-10T06:57:28.758Z,102188.03
2022-10-10T07:00:14.831Z,102183.56
2022-10-10T07:02:54.528Z,102188.63
2022-10-10T07:05:25.635Z,102185.66
2022-10-10T07:07:57.727Z,102175.16
2022-10-10T07:10:32.665Z,102183.19
2022-10-10T07:14:09.294Z,102182.16
2022-10-10T07:17:14.556Z,102187.06
2022-10-10T07:19:46.574Z,102176.91
2022-10-10T07:32:22.934Z,102164.81
2022-10-10T07:38:59.110Z,102158.13
2022-10-10T07:41:48.501Z,102167.91
2022-10-10T07:44:19.313Z,102162.78
2022-10-10T07:46:49.807Z,102155.66
2022-10-10T07:49:20.051Z,102159.25
2022-10-10T07:51:50.780Z,102156.69
2022-10-10T07:54:22.152Z,102158.50
2022-10-10T07:56:52.483Z,102151.34
2022-10-10T07:59:23.603Z,102146.97
2022-10-10T08:01:54.237Z,102142.50
2022-10-10T08:04:25.234Z,102144.34
2022-10-10T08:06:55.711Z,102139.88
2022-10-10T08:09:27.562Z,102138.09
2022-10-10T08:11:58.083Z,102129.22
2022-10-10T08:14:28.702Z,102130.00
2022-10-10T08:16:59.161Z,102120.09
2022-10-10T08:19:29.593Z,102118.38
2022-10-10T08:21:59.941Z,102111.22
2022-10-10T08:24:32.013Z,102093.03
2022-10-10T08:27:02.420Z,102094.72
2022-10-10T08:29:34.039Z,102090.41
2022-10-10T08:32:04.903Z,102096.44
2022-10-10T08:34:35.671Z,102085.69
2022-10-10T08:37:06.370Z,102085.78
2022-10-10T08:39:38.111Z,102081.69
2022-10-10T08:42:08.942Z,102071.56
2022-10-10T08:44:42.323Z,102084.38
2022-10-10T08:47:18.746Z,102073.75
2022-10-10T08:49:52.299Z,102063.69
2022-10-10T08:52:31.961Z,102059.88
2022-10-10T08:55:07.811Z,102052.88
2022-10-10T08:57:47.813Z,102054.06
2022-10-10T09:00:22.181Z,102049.00
2022-10-10T09:02:57.652Z,102040.88
2022-10-10T09:05:43.613Z,102041.97
2022-10-10T09:08:28.565Z,102037.69
2022-10-10T09:11:09.237Z,102038.59
2022-10-10T09:13:44.461Z,102037.56
2022-10-10T09:16:25.512Z,102032.25
2022-10-10T09:19:06.330Z,102030.25
2022-10-10T09:21:40.373Z,102031.16
2022-10-10T09:24:18.750Z,102023.41
2022-10-10T09:26:54.735Z,102012.81
2022-10-10T09:29:34.170Z,102014.47
2022-10-10T09:32:11.288Z,102008.13
2022-10-10T09:34:46.811Z,102006.41
2022-10-10T09:37:42.587Z,102001.91
2022-10-10T09:40:22.005Z,101988.66
2022-10-10T09:42:53.834Z,101985.88
2022-10-10T09:45:29.012Z,101987.56
2022-10-10T09:48:00.221Z,101977.75
2022-10-10T09:50:30.319Z,101982.28
2022-10-10T09:53:01.654Z,101972.47
2022-10-10T09:55:36.401Z,101977.03
2022-10-10T09:58:17.236Z,101965.53
2022-10-10T10:00:47.570Z,101957.53
2022-10-10T10:03:19.948Z,101963.72
2022-10-10T10:05:58.172Z,101960.94
2022-10-10T10:08:31.170Z,101958.28
2022-10-10T10:11:02.495Z,101955.50
2022-10-10T10:13:36.912Z,101943.97
2022-10-10T10:16:10.792Z,101945.00
2022-10-10T10:18:42.713Z,101948.56
2022-10-10T10:21:19.804Z,101932.50
2022-10-10T10:23:57.053Z,101934.22
2022-10-10T10:26:29.975Z,101925.25
2022-10-10T10:29:01.741Z,101920.84
2022-10-10T10:31:54.683Z,101907.53
2022-10-10T10:35:02.502Z,101904.84
2022-10-10T10:37:42.274Z,101906.53
2022-10-10T10:40:33.320Z,101896.81
2022-10-10T10:43:36.640Z,101886.25
2022-10-10T10:46:16.243Z,101889.75
2022-10-10T10:48:48.764Z,101884.38
2022-10-10T10:51:41.731Z,101879.97
2022-10-10T10:54:25.901Z,101869.25
2022-10-10T10:57:06.394Z,101861.22
2022-10-10T11:00:16.969Z,101860.34
2022-10-10T11:02:57.473Z,101851.47
2022-10-10T11:05:41.745Z,101847.81
2022-10-10T11:08:36.117Z,101827.16
2022-10-10T11:11:22.310Z,101814.41
2022-10-10T11:14:00.470Z,101811.88
2022-10-10T11:16:50.324Z,101819.91
2022-10-10T11:19:29.750Z,101808.41
2022-10-10T11:22:05.913Z,101801.25
2022-10-10T11:25:04.999Z,101797.34
2022-10-10T11:27:40.011Z,101791.25
2022-10-10T11:30:17.424Z,101794.97
2022-10-10T11:32:55.333Z,101790.44
2022-10-10T11:35:35.921Z,101783.88
2022-10-10T11:38:16.991Z,101776.94
2022-10-10T11:40:55.351Z,101767.03
2022-10-10T11:43:35.302Z,101768.81
2022-10-10T11:46:16.651Z,101774.97
2022-10-10T11:48:55.225Z,101770.44
2022-10-10T11:51:48.743Z,101761.47
2022-10-10T11:54:33.224Z,101763.31
2022-10-10T11:57:12.865Z,101760.53
2022-10-10T11:59:48.533Z,101748.06
2022-10-10T12:02:25.846Z,101750.69
2022-10-10T12:04:58.847Z,101744.41
2022-10-10T12:07:34.253Z,101740.78
2022-10-10T12:10:11.052Z,101737.00
2022-10-10T12:12:45.741Z,101734.34
2022-10-10T12:15:27.862Z,101735.16
2022-10-10T12:17:58.612Z,101718.09
2022-10-10T12:20:38.000Z,101713.56
2022-10-10T12:23:34.162Z,101707.41
2022-10-10T12:26:04.851Z,101707.31
2022-10-10T12:28:59.612Z,101695.63
2022-10-10T12:31:32.390Z,101700.97
2022-10-10T12:34:15.903Z,101691.94
2022-10-10T12:36:57.903Z,101681.00
2022-10-10T12:39:40.921Z,101674.78
2022-10-10T12:42:33.942Z,101663.91
2022-10-10T12:45:04.132Z,101667.31
2022-10-10T12:48:04.560Z,101665.72
2022-10-10T12:50:38.675Z,101651.44
2022-10-10T12:53:19.383Z,101644.38
2022-10-10T12:55:55.254Z,101641.66
2022-10-10T12:58:28.743Z,101634.50
2022-10-10T13:01:01.963Z,101641.69
2022-10-10T13:03:36.890Z,101632.56
2022-10-10T13:06:10.120Z,101638.72
2022-10-10T13:08:43.513Z,101624.25
2022-10-10T13:11:17.293Z,101617.19
2022-10-10T13:13:53.461Z,101617.81
2022-10-10T13:16:28.727Z,101619.59
2022-10-10T13:19:03.013Z,101608.13
2022-10-10T13:21:35.450Z,101609.94
2022-10-10T13:24:07.993Z,101603.81
2022-10-10T13:26:46.180Z,101601.97
2022-10-10T13:29:26.882Z,101599.34
2022-10-10T13:32:01.172Z,101594.97
2022-10-10T13:34:34.642Z,101592.34
2022-10-10T13:37:06.846Z,101588.78
2022-10-10T13:39:40.461Z,101582.63
2022-10-10T13:42:27.688Z,101573.63
2022-10-10T13:45:00.561Z,101571.81
2022-10-10T13:47:52.458Z,101570.88
2022-10-10T13:50:27.011Z,101559.22
2022-10-10T13:53:25.693Z,101558.34
2022-10-10T13:56:04.030Z,101553.97
2022-10-10T13:58:41.228Z,101550.56
2022-10-10T14:01:31.087Z,101551.50
2022-10-10T14:04:16.801Z,101540.75
2022-10-10T14:06:56.187Z,101536.34
2022-10-10T14:09:31.431Z,101516.91
2022-10-10T14:12:04.031Z,101530.91
2022-10-10T14:14:45.492Z,101536.28
2022-10-10T14:17:16.370Z,101529.19
2022-10-10T14:19:49.854Z,101517.75
2022-10-10T14:22:22.127Z,101523.25
2022-10-10T14:24:57.571Z,101511.00
2022-10-10T14:27:36.281Z,101520.16
2022-10-10T14:30:10.821Z,101519.38
2022-10-10T14:32:41.311Z,101475.38
2022-10-10T14:35:13.803Z,101516.88
2022-10-10T14:37:44.103Z,101514.22
2022-10-10T14:40:21.451Z,101511.41
2022-10-10T14:42:51.830Z,101509.59
2022-10-10T14:45:23.293Z,101506.00
2022-10-10T14:47:53.912Z,101507.78
2022-10-10T14:50:27.904Z,101497.09
2022-10-10T14:52:58.562Z,101498.00
2022-10-10T14:55:28.951Z,101496.28
2022-10-10T14:57:59.470Z,101493.69
2022-10-10T15:00:31.443Z,101485.78
2022-10-10T15:03:01.720Z,101474.31
2022-10-10T15:05:31.891Z,101478.88
2022-10-10T15:08:02.293Z,101480.00
2022-10-10T15:10:34.039Z,101474.88
2022-10-10T15:13:05.523Z,101479.41
2022-10-10T15:15:36.981Z,101472.38
2022-10-10T15:18:25.709Z,101471.56
2022-10-10T15:20:58.109Z,101474.34
2022-10-10T15:23:28.924Z,101476.25
2022-10-10T15:26:02.814Z,101471.97
2022-10-10T15:28:34.166Z,101461.31
2022-10-10T15:31:06.251Z,101469.44
2022-10-10T15:33:37.741Z,101465.97
2022-10-10T15:36:11.053Z,101465.22
2022-10-10T15:38:45.243Z,101466.16
2022-10-10T15:41:17.323Z,101463.47
2022-10-10T15:44:13.803Z,101465.34
2022-10-10T15:46:46.759Z,101458.28
2022-10-10T15:49:17.383Z,101458.38
2022-10-10T15:51:49.133Z,101462.91
2022-10-10T15:54:19.939Z,101454.13
2022-10-10T15:56:50.462Z,101460.34
2022-10-10T15:59:24.160Z,101461.28
2022-10-10T16:01:57.659Z,101456.03
2022-10-10T16:04:29.247Z,101455.16
2022-10-10T16:09:53.813Z,101457.88
2022-10-10T16:12:23.910Z,101452.56
2022-10-10T16:14:55.582Z,101446.38
2022-10-10T16:17:28.000Z,101442.03
2022-10-10T16:19:59.617Z,101449.16
2022-10-10T16:22:29.773Z,101442.06
2022-10-10T16:27:54.162Z,101438.63
2022-10-10T16:30:24.954Z,101444.84
2022-10-10T16:32:56.490Z,101450.25
2022-10-10T16:35:26.780Z,101457.38
2022-10-10T16:37:56.821Z,101454.75
2022-10-10T16:40:27.199Z,101455.69
2022-10-10T16:42:57.360Z,101454.88
2022-10-10T16:45:27.711Z,101453.13
2022-10-10T16:47:59.242Z,101454.94
2022-10-10T16:50:29.957Z,101455.84
2022-10-10T16:53:01.158Z,101449.63
2022-10-10T16:55:31.410Z,101454.94
2022-10-10T16:58:01.963Z,101451.38
2022-10-10T17:00:32.649Z,101455.84
2022-10-10T17:03:04.769Z,101447.81
2022-10-10T17:05:35.292Z,101448.66
2022-10-10T17:08:05.803Z,101447.72
2022-10-10T17:10:36.050Z,101457.50
2022-10-10T17:13:05.961Z,101446.00
2022-10-10T17:15:36.371Z,101447.75
2022-10-10T17:18:09.882Z,101453.03
2022-10-10T17:20:43.557Z,101441.50
2022-10-10T17:23:14.430Z,101443.25
2022-10-10T17:25:45.390Z,101441.50
2022-10-10T17:28:16.496Z,101439.72
2022-10-10T17:30:51.236Z,101439.72
2022-10-10T17:33:25.392Z,101418.53
2022-10-10T17:35:56.205Z,101443.31
2022-10-10T17:38:39.683Z,101435.41
2022-10-10T17:41:14.041Z,101441.63
2022-10-10T17:43:44.450Z,101435.44
2022-10-10T17:49:09.891Z,101436.38
2022-10-10T17:51:42.342Z,101379.88
2022-10-10T17:54:13.771Z,101428.44
2022-10-10T17:56:45.070Z,101425.81
2022-10-10T17:59:16.252Z,101417.88
2022-10-10T18:01:46.801Z,101420.50
2022-10-10T18:04:19.242Z,101423.22
2022-10-10T18:06:49.530Z,101425.00
2022-10-10T18:09:19.503Z,101413.47
2022-10-10T18:11:50.529Z,101416.19
2022-10-10T18:14:22.489Z,101407.31
2022-10-10T18:16:52.622Z,101399.38
2022-10-10T18:19:24.752Z,101395.84
2022-10-10T18:21:55.249Z,101399.41
2022-10-10T18:24:27.534Z,101387.00
2022-10-10T18:26:58.740Z,101387.88
2022-10-10T18:29:29.064Z,101379.91
2022-10-10T18:31:59.002Z,101376.38
2022-10-10T18:34:32.769Z,101379.94
2022-10-10T18:37:04.464Z,101369.28
2022-10-10T18:39:36.334Z,101367.59
2022-10-10T18:42:08.299Z,101364.94
2022-10-10T18:44:38.996Z,101363.19
2022-10-10T18:47:12.814Z,101355.22
2022-10-10T18:49:46.765Z,101356.13
2022-10-10T18:52:18.561Z,101356.13
2022-10-10T18:54:50.724Z,101348.16
2022-10-10T18:57:22.355Z,101352.56
2022-10-10T18:59:59.184Z,101342.84
2022-10-10T19:02:30.211Z,101339.28
2022-10-10T19:05:01.830Z,101348.16
2022-10-10T19:07:32.007Z,101336.63
2022-10-10T19:10:02.311Z,101330.44
2022-10-10T19:12:32.152Z,101331.31
2022-10-10T19:15:02.152Z,101325.97
2022-10-10T19:17:33.672Z,101320.56
2022-10-10T19:20:05.682Z,101310.72
2022-10-10T19:22:35.915Z,101305.38
2022-10-10T19:25:06.562Z,101315.16
2022-10-10T19:27:36.563Z,101302.81
2022-10-10T19:30:07.542Z,101300.16
2022-10-10T19:32:37.904Z,101294.84
2022-10-10T19:35:10.261Z,101293.03
2022-10-10T19:37:40.272Z,101287.75
2022-10-10T19:40:12.458Z,101297.53
2022-10-10T19:42:42.361Z,101292.19
2022-10-10T19:45:13.111Z,101293.94
2022-10-10T19:47:43.293Z,101294.84
2022-10-10T19:50:15.091Z,101294.78
2022-10-10T19:52:44.960Z,101288.56
2022-10-10T19:55:15.420Z,101291.22
2022-10-10T19:57:45.311Z,101285.91
2022-10-10T20:00:16.813Z,101284.13
2022-10-10T20:02:47.241Z,101283.22
2022-10-10T20:05:18.893Z,101272.59
2022-10-10T20:07:51.253Z,101280.63
2022-10-10T20:10:21.942Z,101266.47
2022-10-10T20:12:52.122Z,101268.22
2022-10-10T20:15:22.170Z,101279.72
2022-10-10T20:17:52.153Z,101269.97
2022-10-10T20:20:24.492Z,101266.41
2022-10-10T20:22:56.292Z,101269.09
2022-10-10T20:25:30.963Z,101269.94
2022-10-10T20:28:01.071Z,101267.31
2022-10-10T20:30:31.369Z,101274.44
2022-10-10T20:33:01.541Z,101268.22
2022-10-10T20:35:34.133Z,101270.00
2022-10-10T20:38:05.047Z,101264.75
2022-10-10T20:40:38.611Z,101265.63
2022-10-10T20:43:11.260Z,101262.09
2022-10-10T20:45:42.989Z,101271.00
2022-10-10T20:48:13.334Z,101269.19
2022-10-10T20:50:44.943Z,101266.53
2022-10-10T20:53:15.141Z,101265.72
2022-10-10T20:55:45.083Z,101260.41
2022-10-10T20:58:15.042Z,101255.09
2022-10-10T21:00:45.489Z,101263.97
2022-10-10T21:03:15.468Z,101262.22
2022-10-10T21:05:46.872Z,101265.78
2022-10-10T21:08:17.121Z,101266.72
2022-10-10T21:10:47.490Z,101265.84
2022-10-10T21:13:17.458Z,101261.47
2022-10-10T21:15:47.731Z,101260.56
2022-10-10T21:18:17.731Z,101261.44
2022-10-10T21:20:49.812Z,101267.66
2022-10-10T21:23:19.702Z,101265.84
2022-10-10T21:25:50.411Z,101263.25
2022-10-10T21:28:20.331Z,101262.38
2022-10-10T21:30:50.699Z,101274.72
2022-10-10T21:33:21.410Z,101263.25
2022-10-10T21:35:55.601Z,101257.94
2022-10-10T21:38:27.421Z,101256.19
2022-10-10T21:40:57.151Z,101260.59
2022-10-10T21:43:27.365Z,101246.41
2022-10-10T21:46:03.440Z,101252.66
2022-10-10T21:48:34.200Z,101258.84
2022-10-10T21:51:05.975Z,101249.97
2022-10-10T21:53:36.762Z,101249.97
2022-10-10T21:56:08.990Z,101240.28
2022-10-10T21:58:40.817Z,101242.03
2022-10-10T22:01:11.151Z,101245.59
2022-10-10T22:03:41.483Z,101241.13
2022-10-10T22:06:14.621Z,101238.50
2022-10-10T22:08:46.021Z,101238.50
2022-10-10T22:11:18.733Z,101246.47
2022-10-10T22:13:49.662Z,101240.28
2022-10-10T22:16:21.007Z,101256.19
2022-10-10T22:18:54.138Z,101251.78
2022-10-10T22:21:30.287Z,101246.44
2022-10-10T22:24:02.916Z,101234.09
2022-10-10T22:26:34.044Z,101242.03
2022-10-10T22:29:04.679Z,101239.41
2022-10-10T22:31:37.978Z,101233.16
2022-10-10T22:34:08.672Z,101230.53
2022-10-10T22:36:40.072Z,101226.13
2022-10-10T22:39:11.422Z,101217.28
2022-10-10T22:41:41.453Z,101224.34
2022-10-10T22:44:11.829Z,101221.69
2022-10-10T22:46:41.654Z,101213.75
2022-10-10T22:49:11.820Z,101214.63
2022-10-10T22:51:43.141Z,101219.94
2022-10-10T22:54:15.131Z,101222.63
2022-10-10T22:56:44.991Z,101218.19
2022-10-10T22:59:15.351Z,101213.81
2022-10-10T23:01:45.352Z,101185.56
2022-10-10T23:04:15.501Z,101212.94
2022-10-10T23:06:47.202Z,101215.56
2022-10-10T23:09:18.150Z,101220.91
2022-10-10T23:11:48.633Z,101219.13
2022-10-10T23:14:19.300Z,101219.19
2022-10-10T23:16:49.483Z,101209.47
2022-10-10T23:19:19.543Z,101212.09
2022-10-10T23:21:51.073Z,101210.31
2022-10-10T23:24:21.640Z,101202.38
2022-10-10T23:26:52.013Z,101206.78
2022-10-10T23:29:23.161Z,101208.59
2022-10-10T23:31:53.073Z,101215.69
2022-10-10T23:34:23.340Z,101209.53
2022-10-10T23:36:55.371Z,101214.88
2022-10-10T23:39:25.652Z,101208.66
2022-10-10T23:41:55.680Z,101207.78
2022-10-10T23:44:26.031Z,101194.56
2022-10-10T23:46:55.983Z,101200.72
2022-10-10T23:49:25.973Z,101215.75
2022-10-10T23:51:57.731Z,101208.69
2022-10-10T23:54:27.402Z,101210.50
2022-10-10T23:56:57.604Z,101210.50
2022-10-10T23:59:27.531Z,101203.50
